Artemis — SWZE — position and weather

sailwx.info

Track history (hours):
 
Tides and Currents Weather Stations Pressure Air Temp Water Temp Dewpoint Dewpoint Depression Visibility Wind Speed Wind Dir Waves Ship Positions

Artemis

Last reported at 2017-Mar-23 06:14 UTC. Time now 2017-Mar-24 02:13 UTC.
Position N 37°37' E 025°01'.

Length 89 m; draft 3.4 m.

Type: Ship. MMSI: 237026300.

Date/timePositionNaut miles runAvg speedWind from/ knotsBaromVisibWave heightAir tempDewpointWater temp
2017-Mar-23 06:14N 37°37' E 025°01'812.0
2017-Mar-23 05:34N 37°32' E 025°09'1413.8
2017-Mar-23 04:33N 37°18' E 025°08'4 0.5
2017-Mar-22 20:13N 37°14' E 025°08'1014.6
2017-Mar-22 19:33N 37°24' E 025°09'1110.7
2017-Mar-22 18:34N 37°34' E 025°05'1814.4
2017-Mar-22 17:20N 37°47' E 024°49'6 6.3
2017-Mar-22 16:24N 37°51' E 024°44'49 3.8
2017-Mar-22 03:33N 37°04' E 025°02'4 0.4
2017-Mar-21 19:09N 37°06' E 025°06'17 0.6
2017-Mar-20 15:27N 37°21' E 024°56'18 2.3
2017-Mar-20 07:33N 37°06' E 025°06'18 1.4
2017-Mar-19 18:20N 37°16' E 024°47'1114.4
2017-Mar-19 17:32N 37°23' E 024°58'10 9.4
2017-Mar-19 16:28N 37°31' E 024°51'28 1.9
2017-Mar-19 02:15N 37°06' E 025°06'21 1.8
2017-Mar-18 14:29N 37°27' E 025°03'1313.7
2017-Mar-18 13:33N 37°28' E 025°19'1312.9
2017-Mar-18 12:33N 37°16' E 025°13'10 5.1
2017-Mar-18 10:34N 37°08' E 025°20'9 0.4
2017-Mar-17 15:10N 36°59' E 025°17'813.2
2017-Mar-17 14:34N 37°06' E 025°22'11 5.2
2017-Mar-17 12:31N 37°11' E 025°10'1414.5
2017-Mar-17 11:33N 37°23' E 025°17'6 5.4
2017-Mar-17 10:32N 37°27' E 025°12'11 0.4
2017-Mar-16 06:06N 37°35' E 025°03'611.3
2017-Mar-16 05:34N 37°32' E 025°09'1414.0
2017-Mar-16 04:33N 37°18' E 025°08'1 0.1
2017-Mar-15 19:33N 37°18' E 025°09'1514.7
2017-Mar-15 18:33N 37°32' E 025°09'27 1.8
2017-Mar-15 03:34N 37°06' E 025°04'1 0.2
2017-Mar-14 19:14N 37°06' E 025°06'18 0.6
2017-Mar-13 15:32N 37°19' E 024°51'18 2.4
2017-Mar-13 08:10N 37°03' E 025°01'5 4.7
2017-Mar-13 07:09N 37°06' E 025°06'  
Track history (hours):
 
Tides and Currents Weather Stations Pressure Air Temp Water Temp Dewpoint Dewpoint Depression Visibility Wind Speed Wind Dir Waves Ship Positions

Artemis

Last reported at 2017-Mar-23 06:14 UTC. Time now 2017-Mar-24 02:13 UTC.
Position N 37°37' E 025°01'.

Length 89 m; draft 3.4 m.

Type: Ship. MMSI: 237026300.

Date/timePositionNaut miles runAvg speedWind from/ knotsBaromVisibWave heightAir tempDewpointWater temp
2017-Mar-23 06:14N 37°37' E 025°01'812.0
2017-Mar-23 05:34N 37°32' E 025°09'1413.8
2017-Mar-23 04:33N 37°18' E 025°08'4 0.5
2017-Mar-22 20:13N 37°14' E 025°08'1014.6
2017-Mar-22 19:33N 37°24' E 025°09'1110.7
2017-Mar-22 18:34N 37°34' E 025°05'1814.4
2017-Mar-22 17:20N 37°47' E 024°49'6 6.3
2017-Mar-22 16:24N 37°51' E 024°44'49 3.8
2017-Mar-22 03:33N 37°04' E 025°02'4 0.4
2017-Mar-21 19:09N 37°06' E 025°06'17 0.6
2017-Mar-20 15:27N 37°21' E 024°56'18 2.3
2017-Mar-20 07:33N 37°06' E 025°06'18 1.4
2017-Mar-19 18:20N 37°16' E 024°47'1114.4
2017-Mar-19 17:32N 37°23' E 024°58'10 9.4
2017-Mar-19 16:28N 37°31' E 024°51'28 1.9
2017-Mar-19 02:15N 37°06' E 025°06'21 1.8
2017-Mar-18 14:29N 37°27' E 025°03'1313.7
2017-Mar-18 13:33N 37°28' E 025°19'1312.9
2017-Mar-18 12:33N 37°16' E 025°13'10 5.1
2017-Mar-18 10:34N 37°08' E 025°20'9 0.4
2017-Mar-17 15:10N 36°59' E 025°17'813.2
2017-Mar-17 14:34N 37°06' E 025°22'11 5.2
2017-Mar-17 12:31N 37°11' E 025°10'1414.5
2017-Mar-17 11:33N 37°23' E 025°17'6 5.4
2017-Mar-17 10:32N 37°27' E 025°12'11 0.4
2017-Mar-16 06:06N 37°35' E 025°03'611.3
2017-Mar-16 05:34N 37°32' E 025°09'1414.0
2017-Mar-16 04:33N 37°18' E 025°08'1 0.1
2017-Mar-15 19:33N 37°18' E 025°09'1514.7
2017-Mar-15 18:33N 37°32' E 025°09'27 1.8
2017-Mar-15 03:34N 37°06' E 025°04'1 0.2
2017-Mar-14 19:14N 37°06' E 025°06'18 0.6
2017-Mar-13 15:32N 37°19' E 024°51'18 2.4
2017-Mar-13 08:10N 37°03' E 025°01'5 4.7
2017-Mar-13 07:09N 37°06' E 025°06'  

Dump ship's entire track history